createdAt,value
2023-04-18T00:07:45.642Z,100.00
2023-04-18T00:18:22.287Z,100.00
2023-04-18T00:28:29.759Z,100.00
2023-04-18T00:38:32.335Z,100.00
2023-04-18T00:48:36.809Z,100.00
2023-04-18T00:58:41.351Z,100.00
2023-04-18T01:08:45.865Z,100.00
2023-04-18T01:18:54.977Z,100.00
2023-04-18T01:28:57.501Z,100.00
2023-04-18T01:39:00.328Z,100.00
2023-04-18T01:49:06.022Z,100.00
2023-04-18T01:59:10.622Z,100.00
2023-04-18T02:09:13.820Z,100.00
2023-04-18T02:19:18.379Z,100.00
2023-04-18T02:29:22.931Z,100.00
2023-04-18T02:39:25.363Z,100.00
2023-04-18T02:49:27.657Z,100.00
2023-04-18T02:59:29.907Z,100.00
2023-04-18T03:09:54.827Z,100.00
2023-04-18T03:20:04.766Z,100.00
2023-04-18T03:30:08.217Z,100.00
2023-04-18T03:40:14.951Z,100.00
2023-04-18T03:50:24.638Z,100.00
2023-04-18T04:00:29.776Z,100.00
2023-04-18T04:10:41.043Z,100.00
2023-04-18T04:20:53.195Z,100.00
2023-04-18T04:31:10.811Z,100.00
2023-04-18T04:41:21.161Z,100.00
2023-04-18T04:51:26.456Z,100.00
2023-04-18T05:01:31.147Z,100.00
2023-04-18T05:11:36.786Z,100.00
2023-04-18T05:21:39.006Z,100.00
2023-04-18T05:31:44.243Z,100.00
2023-04-18T05:41:47.738Z,100.00
2023-04-18T05:51:56.761Z,100.00
2023-04-18T06:02:13.530Z,100.00
2023-04-18T06:12:17.704Z,100.00
2023-04-18T06:22:36.209Z,100.00
2023-04-18T06:32:39.004Z,100.00
2023-04-18T06:42:42.760Z,100.00
2023-04-18T06:52:45.890Z,100.00
2023-04-18T07:02:48.619Z,100.00
2023-04-18T07:12:53.192Z,100.00
2023-04-18T07:22:55.564Z,100.00
2023-04-18T07:32:57.842Z,100.00
2023-04-18T07:43:00.053Z,100.00
2023-04-18T07:53:05.033Z,100.00
2023-04-18T08:03:10.705Z,100.00
2023-04-18T08:13:15.222Z,100.00
2023-04-18T08:23:18.852Z,100.00
2023-04-18T08:33:22.790Z,84.08
2023-04-18T08:43:31.458Z,80.78
2023-04-18T08:53:34.632Z,74.34
2023-04-18T09:03:43.454Z,72.16
2023-04-18T09:13:50.648Z,72.04
2023-04-18T09:24:18.665Z,69.32
2023-04-18T09:34:32.469Z,69.08
2023-04-18T09:44:38.902Z,70.07
2023-04-18T09:54:41.225Z,69.69
2023-04-18T10:04:48.321Z,70.69
2023-04-18T10:14:58.345Z,69.22
2023-04-18T10:25:00.950Z,71.19
2023-04-18T10:35:07.621Z,71.39
2023-04-18T10:45:23.556Z,69.85
2023-04-18T10:55:31.060Z,69.79
2023-04-18T11:05:33.381Z,69.90
2023-04-18T11:15:37.311Z,69.66
2023-04-18T11:25:45.138Z,68.31
2023-04-18T11:35:49.898Z,69.21
2023-04-18T11:45:59.673Z,70.80
2023-04-18T11:56:04.351Z,70.50
2023-04-18T12:06:06.980Z,69.28
2023-04-18T12:16:12.628Z,70.11
2023-04-18T12:26:24.031Z,68.48
2023-04-18T12:36:29.061Z,67.31
2023-04-18T12:46:31.756Z,67.03
2023-04-18T12:56:36.618Z,66.29
2023-04-18T13:06:41.326Z,65.76
2023-04-18T13:16:46.806Z,64.17
2023-04-18T13:26:53.516Z,64.35
2023-04-18T13:36:58.895Z,63.58
2023-04-18T13:47:03.054Z,62.78
2023-04-18T13:57:12.005Z,62.27
2023-04-18T14:07:19.558Z,62.45
2023-04-18T14:17:25.300Z,61.69
2023-04-18T14:27:29.411Z,60.63
2023-04-18T14:37:31.817Z,60.80
2023-04-18T14:47:35.095Z,60.16
2023-04-18T14:57:41.292Z,59.36
2023-04-18T15:07:48.354Z,59.42
2023-04-18T15:17:52.897Z,58.93
2023-04-18T15:27:56.180Z,57.38
2023-04-18T15:38:00.929Z,57.36
2023-04-18T15:48:07.123Z,56.34
2023-04-18T15:58:10.274Z,55.56
2023-04-18T16:08:16.145Z,55.88
2023-04-18T16:18:21.676Z,56.39
2023-04-18T16:28:25.120Z,57.17
2023-04-18T16:38:29.671Z,57.52
2023-04-18T16:48:37.258Z,58.01
2023-04-18T16:58:39.583Z,58.39
2023-04-18T17:08:49.195Z,58.55
2023-04-18T17:18:54.437Z,59.14
2023-04-18T17:28:56.663Z,59.48
2023-04-18T17:39:06.589Z,59.36
2023-04-18T17:49:11.590Z,60.30
2023-04-18T17:59:14.435Z,61.18
2023-04-18T18:09:19.962Z,61.55
2023-04-18T18:19:24.535Z,61.15
2023-04-18T18:29:31.667Z,60.97
2023-04-18T18:39:38.694Z,61.65
2023-04-18T18:49:48.972Z,61.88
2023-04-18T18:59:51.794Z,61.94
2023-04-18T19:09:55.580Z,62.32
2023-04-18T19:20:04.455Z,62.53
2023-04-18T19:30:12.209Z,62.67
2023-04-18T19:40:15.965Z,63.04
2023-04-18T19:50:19.592Z,63.62
2023-04-18T20:00:25.685Z,63.78
2023-04-18T20:10:27.975Z,64.55
2023-04-18T20:20:39.642Z,64.76
2023-04-18T20:30:54.318Z,65.80
2023-04-18T20:40:59.055Z,67.42
2023-04-18T20:51:03.674Z,69.74
2023-04-18T21:01:10.589Z,71.57
2023-04-18T21:11:13.022Z,71.52
2023-04-18T21:21:16.172Z,73.24
2023-04-18T21:31:19.713Z,75.59
2023-04-18T21:41:26.158Z,76.44
2023-04-18T21:51:29.802Z,77.15
2023-04-18T22:01:34.688Z,78.56
2023-04-18T22:11:41.615Z,79.26
2023-04-18T22:21:47.526Z,79.40
2023-04-18T22:31:53.636Z,81.77
2023-04-18T22:41:59.458Z,83.37
2023-04-18T22:52:02.579Z,84.67
2023-04-18T23:02:12.990Z,83.88
2023-04-18T23:12:18.897Z,85.20
2023-04-18T23:22:27.075Z,87.21
2023-04-18T23:32:33.384Z,87.54
2023-04-18T23:42:42.484Z,90.04
2023-04-18T23:52:50.270Z,93.54
